createdAt,value
2019-06-15T06:03:57.174Z,33.10
2019-06-15T06:06:36.162Z,33.43
2019-06-15T06:13:15.413Z,30.90
2019-06-15T06:34:16.580Z,28.73
2019-06-15T06:40:48.227Z,29.00
2019-06-15T06:43:33.305Z,24.53
2019-06-15T06:46:30.092Z,26.50
2019-06-15T06:49:46.981Z,26.93
2019-06-15T06:53:25.101Z,26.73
2019-06-15T07:27:42.486Z,15.03
2019-06-15T07:30:27.540Z,15.03
2019-06-15T07:32:51.506Z,14.80
2019-06-15T07:35:46.151Z,14.07
2019-06-15T07:38:51.853Z,13.30
2019-06-15T07:41:27.245Z,15.10
2019-06-15T07:45:16.029Z,15.63
2019-06-15T07:52:12.747Z,14.17
2019-06-15T07:55:19.443Z,15.50
2019-06-15T07:58:25.050Z,14.57
2019-06-15T08:01:25.834Z,14.23
2019-06-15T08:37:41.246Z,7.93
2019-06-15T09:19:58.395Z,5.53
2019-06-15T09:22:39.846Z,10.17
2019-06-15T09:25:36.763Z,12.30
2019-06-15T09:28:11.059Z,12.93
2019-06-15T09:31:05.494Z,15.73
2019-06-15T09:33:56.490Z,17.23
2019-06-15T09:36:31.905Z,19.23
2019-06-15T09:39:20.625Z,21.23
2019-06-15T09:42:01.216Z,20.87
2019-06-15T09:44:46.542Z,20.97
2019-06-15T09:47:32.039Z,19.00
2019-06-15T09:50:11.406Z,17.67
2019-06-15T09:52:58.296Z,16.43
2019-06-15T09:55:43.774Z,15.57
2019-06-15T13:34:02.363Z,3.12
2019-06-15T13:36:47.802Z,3.08
2019-06-15T13:39:49.929Z,3.63
2019-06-15T13:42:24.508Z,3.17
2019-06-15T13:45:15.213Z,3.33
2019-06-15T13:51:48.206Z,3.30
2019-06-15T13:54:56.527Z,2.70
2019-06-15T13:57:16.577Z,3.47
2019-06-15T14:00:00.459Z,2.92
2019-06-15T14:02:35.341Z,3.22
2019-06-15T14:05:13.535Z,4.12
2019-06-15T14:07:54.157Z,5.00
2019-06-15T14:10:25.249Z,3.37
2019-06-15T14:13:00.463Z,3.55
2019-06-15T14:15:37.563Z,4.62
2019-06-15T14:18:06.618Z,3.62
2019-06-15T14:20:40.164Z,4.25
2019-06-15T14:23:14.310Z,4.23
2019-06-15T14:25:48.274Z,6.43
2019-06-15T14:28:22.415Z,4.47
2019-06-15T14:30:55.844Z,3.45
2019-06-15T14:33:35.174Z,4.90
2019-06-15T14:36:16.436Z,4.87
2019-06-15T14:38:50.696Z,6.40
2019-06-15T14:41:41.662Z,4.65
2019-06-15T14:44:11.292Z,4.33
2019-06-15T14:47:09.752Z,3.90
2019-06-15T14:49:44.793Z,3.75
2019-06-15T14:52:29.423Z,5.25
2019-06-15T14:55:36.655Z,7.28
2019-06-15T14:57:45.096Z,6.08
2019-06-15T15:00:25.394Z,5.62
2019-06-15T15:03:07.431Z,4.60
2019-06-15T15:05:42.499Z,5.12
2019-06-15T15:08:16.972Z,4.08
2019-06-15T15:10:58.026Z,4.85
2019-06-15T15:13:33.111Z,5.75
2019-06-15T15:16:08.094Z,4.25
2019-06-15T15:18:50.296Z,5.15
2019-06-15T15:21:21.289Z,7.15
2019-06-15T15:23:57.090Z,4.78
2019-06-15T15:26:40.916Z,3.42
2019-06-15T15:29:19.385Z,4.08
2019-06-15T15:31:52.771Z,9.80
2019-06-15T15:34:31.333Z,4.05
2019-06-15T15:37:03.820Z,4.47
2019-06-15T15:39:43.708Z,6.17
2019-06-15T15:42:23.112Z,4.67
2019-06-15T15:45:07.130Z,4.50
2019-06-15T15:47:39.274Z,4.10
2019-06-15T15:50:17.626Z,4.50
2019-06-15T15:53:04.410Z,4.90
2019-06-15T15:56:08.401Z,4.20
2019-06-15T15:58:42.278Z,4.53
2019-06-15T16:01:20.033Z,5.42
2019-06-15T16:03:52.888Z,4.62
2019-06-15T16:06:29.922Z,7.72
2019-06-15T16:09:10.049Z,7.25
2019-06-15T16:11:46.255Z,7.40
2019-06-15T16:14:18.511Z,6.22
2019-06-15T16:16:55.853Z,4.40
2019-06-15T16:19:31.487Z,6.08
2019-06-15T16:22:05.310Z,5.60
2019-06-15T16:24:38.671Z,5.50
2019-06-15T16:27:11.761Z,4.50
2019-06-15T16:29:48.223Z,5.37
2019-06-15T16:32:21.255Z,5.90
2019-06-15T16:35:29.452Z,6.08
2019-06-15T16:38:07.838Z,5.47
2019-06-15T16:40:56.070Z,6.78
2019-06-15T16:44:20.639Z,10.55
2019-06-15T16:50:59.046Z,5.65
2019-06-15T16:53:47.971Z,6.67
2019-06-15T16:57:52.494Z,7.45
2019-06-15T17:00:10.354Z,5.87
2019-06-15T17:32:46.439Z,5.25
2019-06-15T18:47:07.509Z,5.57
2019-06-15T18:50:21.337Z,5.63
2019-06-15T18:59:59.035Z,5.03
2019-06-15T19:06:02.853Z,5.97
2019-06-15T19:12:35.771Z,5.77
2019-06-15T19:15:11.203Z,3.87
2019-06-15T20:00:46.953Z,7.83
2019-06-15T20:03:20.847Z,6.80
2019-06-15T20:06:09.400Z,8.17
2019-06-15T20:09:20.103Z,7.10
2019-06-15T20:11:56.085Z,7.27
2019-06-15T20:14:33.049Z,7.03
2019-06-15T20:17:07.646Z,6.67
2019-06-15T20:19:39.321Z,5.83
2019-06-15T20:22:19.063Z,7.97
2019-06-15T20:24:56.422Z,6.33
2019-06-15T20:27:31.593Z,6.47
2019-06-15T20:33:12.310Z,7.17
2019-06-15T20:59:56.341Z,9.37
2019-06-15T21:02:36.019Z,8.70
2019-06-15T21:08:43.823Z,11.00
2019-06-15T21:11:18.964Z,17.77
2019-06-15T21:14:14.923Z,18.13
2019-06-15T21:17:24.673Z,15.20
2019-06-15T21:20:32.687Z,20.00
2019-06-15T21:26:43.974Z,14.73
2019-06-15T21:29:18.606Z,15.07
2019-06-15T21:31:50.012Z,13.43
2019-06-15T21:34:20.928Z,13.53
2019-06-15T21:36:51.965Z,15.10
2019-06-15T21:39:26.568Z,13.80
2019-06-15T21:42:01.016Z,12.97
2019-06-15T21:44:37.051Z,13.90
2019-06-15T21:47:17.653Z,13.90
2019-06-15T21:49:56.006Z,13.67
2019-06-15T21:52:36.412Z,11.93
2019-06-15T21:55:36.312Z,11.93
2019-06-15T21:58:10.110Z,13.70
2019-06-15T22:22:58.440Z,11.43
2019-06-15T22:25:35.978Z,12.83
2019-06-15T22:28:10.507Z,10.87
2019-06-15T22:31:00.174Z,12.73
2019-06-15T22:33:41.265Z,12.43
2019-06-15T22:36:22.218Z,12.13
2019-06-15T22:42:19.289Z,12.50
2019-06-15T22:45:20.997Z,13.73
2019-06-15T22:47:58.003Z,13.37
2019-06-15T22:50:30.779Z,10.97
2019-06-15T22:53:07.477Z,11.20
2019-06-15T22:55:46.242Z,12.23
2019-06-15T22:58:26.877Z,12.17
2019-06-15T23:01:01.216Z,13.63
2019-06-15T23:03:33.483Z,11.63
2019-06-15T23:33:33.493Z,13.43
2019-06-15T23:36:12.627Z,11.13
2019-06-15T23:38:47.258Z,11.80
2019-06-15T23:41:24.240Z,10.00
2019-06-15T23:44:04.314Z,11.23
